PWSweather.com
Personal Weather Stations
Station Observations
NANKRWX
Nanaimo, BC V9R 6W6

Nanaimo, BC V9R 6W6

Lat: 49.168, Lon: -124.036

Elevation: 637

Station Type: Davis Vantage Pro 2

http://weathercat.ca

High Low Average
Temperature 55.0°F12.8°C 42.0°F5.6°C 47.6°F8.7°C
Dew Point 45.0°F7.2°C 31.9°F-0.1°C 40.2°F4.6°C
Winds 5.0 mph 8.0 kmh Calm Calm Calm SSWCalm SSW
Wind Gusts 14.0 mph22.5 kmh -- 2.0 mph3.2 kmh
Humidity 93% 43% 77%
Pressure 29.81 in1009.5 mb 29.65 in1004.1 mb -
Precipitation 0.00 in0.0 mm - -
Hour Temp Dew Point Humidity Winds Wind Gusts Pressure Precip Precip Rate Daily Precip Total
12:00 AM 42.9°F6.1°C 38.7°F3.7°C 85% Calm Calm -- 29.83 in1010.2 mb 0.00 in0.0 mm 0.00 in0.0 mm 0.00 in0.0 mm
12:10 AM 42.7°F5.9°C 38.8°F3.8°C 86% Calm Calm -- 29.83 in1010.2 mb 0.00 in0.0 mm 0.00 in0.0 mm 0.00 in0.0 mm
12:20 AM 42.4°F5.8°C 38.5°F3.6°C 86% Calm Calm 1.0 mph1.6 kmh 29.83 in1010.2 mb 0.00 in0.0 mm 0.00 in0.0 mm 0.00 in0.0 mm
12:30 AM 42.4°F5.8°C 38.8°F3.8°C 87% Calm Calm 1.0 mph1.6 kmh 29.82 in1009.8 mb 0.00 in0.0 mm 0.00 in0.0 mm 0.00 in0.0 mm
12:40 AM 42.5°F5.8°C 38.9°F3.8°C 87% Calm Calm 1.0 mph1.6 kmh 29.82 in1009.8 mb 0.00 in0.0 mm 0.00 in0.0 mm 0.00 in0.0 mm
12:50 AM 42.3°F5.7°C 38.7°F3.7°C 87% Calm Calm 2.0 mph3.2 kmh 29.82 in1009.8 mb 0.00 in0.0 mm 0.00 in0.0 mm 0.00 in0.0 mm
01:00 AM 42.1°F5.6°C 38.5°F3.6°C 87% Calm Calm 5.0 mph8.0 kmh 29.81 in1009.5 mb 0.00 in0.0 mm 0.00 in0.0 mm 0.00 in0.0 mm
01:10 AM 42.3°F5.7°C 38.4°F3.6°C 86% Calm Calm 2.0 mph3.2 kmh 29.81 in1009.5 mb 0.00 in0.0 mm 0.00 in0.0 mm 0.00 in0.0 mm
01:20 AM 42.5°F5.8°C 38.3°F3.5°C 85% Calm Calm 6.0 mph9.7 kmh 29.80 in1009.1 mb 0.00 in0.0 mm 0.00 in0.0 mm 0.00 in0.0 mm
01:30 AM 42.7°F5.9°C 38.2°F3.4°C 84% Calm Calm 2.0 mph3.2 kmh 29.80 in1009.1 mb 0.00 in0.0 mm 0.00 in0.0 mm 0.00 in0.0 mm
01:40 AM 42.5°F5.8°C 38.3°F3.5°C 85% Calm Calm 2.0 mph3.2 kmh 29.79 in1008.8 mb 0.00 in0.0 mm 0.00 in0.0 mm 0.00 in0.0 mm
01:50 AM 42.0°F5.6°C 37.8°F3.2°C 85% Calm Calm 4.0 mph6.4 kmh 29.79 in1008.8 mb 0.00 in0.0 mm 0.00 in0.0 mm 0.00 in0.0 mm
02:00 AM 42.2°F5.7°C 38.0°F3.3°C 85% Calm Calm 2.0 mph3.2 kmh 29.78 in1008.5 mb 0.00 in0.0 mm 0.00 in0.0 mm 0.00 in0.0 mm
02:10 AM 42.3°F5.7°C 38.1°F3.4°C 85% Calm Calm 2.0 mph3.2 kmh 29.78 in1008.5 mb 0.00 in0.0 mm 0.00 in0.0 mm 0.00 in0.0 mm
02:20 AM 42.5°F5.8°C 39.5°F4.2°C 89% 1.0 mph NW1.6 kmh NW 1.0 mph1.6 kmh 29.78 in1008.5 mb 0.00 in0.0 mm 0.00 in0.0 mm 0.00 in0.0 mm
02:30 AM 43.2°F6.2°C 38.1°F3.4°C 82% Calm Calm 1.0 mph1.6 kmh 29.77 in1008.1 mb 0.00 in0.0 mm 0.00 in0.0 mm 0.00 in0.0 mm
02:40 AM 46.6°F8.1°C 37.0°F2.8°C 69% 2.0 mph SW3.2 kmh SW 14.0 mph22.5 kmh 29.76 in1007.8 mb 0.00 in0.0 mm 0.00 in0.0 mm 0.00 in0.0 mm
02:50 AM 51.4°F10.8°C 37.1°F2.8°C 58% Calm Calm 6.0 mph9.7 kmh 29.75 in1007.5 mb 0.00 in0.0 mm 0.00 in0.0 mm 0.00 in0.0 mm
03:00 AM 52.3°F11.3°C 36.6°F2.6°C 55% Calm Calm 1.0 mph1.6 kmh 29.75 in1007.5 mb 0.00 in0.0 mm 0.00 in0.0 mm 0.00 in0.0 mm
03:10 AM 52.1°F11.2°C 36.0°F2.2°C 54% Calm Calm 5.0 mph8.0 kmh 29.74 in1007.1 mb 0.00 in0.0 mm 0.00 in0.0 mm 0.00 in0.0 mm
03:20 AM 52.2°F11.2°C 34.6°F1.4°C 51% Calm Calm 4.0 mph6.4 kmh 29.74 in1007.1 mb 0.00 in0.0 mm 0.00 in0.0 mm 0.00 in0.0 mm
03:30 AM 52.6°F11.4°C 35.0°F1.7°C 51% Calm Calm 6.0 mph9.7 kmh 29.74 in1007.1 mb 0.00 in0.0 mm 0.00 in0.0 mm 0.00 in0.0 mm
03:40 AM 52.3°F11.3°C 36.2°F2.3°C 54% Calm Calm 2.0 mph3.2 kmh 29.74 in1007.1 mb 0.00 in0.0 mm 0.00 in0.0 mm 0.00 in0.0 mm
03:50 AM 51.5°F10.8°C 35.9°F2.2°C 55% Calm Calm 1.0 mph1.6 kmh 29.74 in1007.1 mb 0.00 in0.0 mm 0.00 in0.0 mm 0.00 in0.0 mm
04:00 AM 51.4°F10.8°C 34.4°F1.3°C 52% Calm Calm 5.0 mph8.0 kmh 29.73 in1006.8 mb 0.00 in0.0 mm 0.00 in0.0 mm 0.00 in0.0 mm
04:10 AM 51.6°F10.9°C 35.0°F1.7°C 53% Calm Calm 2.0 mph3.2 kmh 29.72 in1006.4 mb 0.00 in0.0 mm 0.00 in0.0 mm 0.00 in0.0 mm
04:20 AM 51.0°F10.6°C 34.0°F1.1°C 52% Calm Calm 2.0 mph3.2 kmh 29.72 in1006.4 mb 0.00 in0.0 mm 0.00 in0.0 mm 0.00 in0.0 mm
04:30 AM 51.0°F10.6°C 35.4°F1.9°C 55% Calm Calm 2.0 mph3.2 kmh 29.71 in1006.1 mb 0.00 in0.0 mm 0.00 in0.0 mm 0.00 in0.0 mm
04:40 AM 51.4°F10.8°C 34.9°F1.6°C 53% 1.0 mph S1.6 kmh S 4.0 mph6.4 kmh 29.70 in1005.8 mb 0.00 in0.0 mm 0.00 in0.0 mm 0.00 in0.0 mm
04:50 AM 52.3°F11.3°C 35.2°F1.8°C 52% 2.0 mph SSE3.2 kmh SSE 2.0 mph3.2 kmh 29.70 in1005.8 mb 0.00 in0.0 mm 0.00 in0.0 mm 0.00 in0.0 mm
05:00 AM 52.0°F11.1°C 34.5°F1.4°C 51% Calm Calm 2.0 mph3.2 kmh 29.70 in1005.8 mb 0.00 in0.0 mm 0.00 in0.0 mm 0.00 in0.0 mm
05:10 AM 51.2°F10.7°C 35.1°F1.7°C 54% Calm Calm 2.0 mph3.2 kmh 29.70 in1005.8 mb 0.00 in0.0 mm 0.00 in0.0 mm 0.00 in0.0 mm
05:20 AM 50.8°F10.4°C 35.2°F1.8°C 55% Calm Calm 2.0 mph3.2 kmh 29.69 in1005.4 mb 0.00 in0.0 mm 0.00 in0.0 mm 0.00 in0.0 mm
05:30 AM 51.8°F11.0°C 32.8°F0.4°C 48% 2.0 mph S3.2 kmh S 5.0 mph8.0 kmh 29.68 in1005.1 mb 0.00 in0.0 mm 0.00 in0.0 mm 0.00 in0.0 mm
05:40 AM 53.4°F11.9°C 32.6°F0.3°C 45% 2.0 mph E3.2 kmh E 5.0 mph8.0 kmh 29.68 in1005.1 mb 0.00 in0.0 mm 0.00 in0.0 mm 0.00 in0.0 mm
05:50 AM 53.8°F12.1°C 33.0°F0.6°C 45% Calm Calm 5.0 mph8.0 kmh 29.68 in1005.1 mb 0.00 in0.0 mm 0.00 in0.0 mm 0.00 in0.0 mm
06:00 AM 53.9°F12.2°C 31.9°F-0.1°C 43% 2.0 mph ENE3.2 kmh ENE 5.0 mph8.0 kmh 29.68 in1005.1 mb 0.00 in0.0 mm 0.00 in0.0 mm 0.00 in0.0 mm
06:10 AM 53.2°F11.8°C 33.5°F0.8°C 47% Calm Calm 2.0 mph3.2 kmh 29.67 in1004.7 mb 0.00 in0.0 mm 0.00 in0.0 mm 0.00 in0.0 mm
06:20 AM 52.2°F11.2°C 35.6°F2.0°C 53% 1.0 mph ENE1.6 kmh ENE 1.0 mph1.6 kmh 29.67 in1004.7 mb 0.00 in0.0 mm 0.00 in0.0 mm 0.00 in0.0 mm
06:30 AM 50.8°F10.4°C 36.1°F2.3°C 57% Calm Calm 1.0 mph1.6 kmh 29.67 in1004.7 mb 0.00 in0.0 mm 0.00 in0.0 mm 0.00 in0.0 mm
06:40 AM 51.3°F10.7°C 34.8°F1.6°C 53% Calm Calm 3.0 mph4.8 kmh 29.67 in1004.7 mb 0.00 in0.0 mm 0.00 in0.0 mm 0.00 in0.0 mm
06:50 AM 51.8°F11.0°C 35.2°F1.8°C 53% Calm Calm 6.0 mph9.7 kmh 29.66 in1004.4 mb 0.00 in0.0 mm 0.00 in0.0 mm 0.00 in0.0 mm
07:00 AM 51.4°F10.8°C 35.8°F2.1°C 55% Calm Calm -- 29.67 in1004.7 mb 0.00 in0.0 mm 0.00 in0.0 mm 0.00 in0.0 mm
07:10 AM 50.4°F10.2°C 37.1°F2.8°C 60% Calm Calm -- 29.66 in1004.4 mb 0.00 in0.0 mm 0.00 in0.0 mm 0.00 in0.0 mm
07:20 AM 49.3°F9.6°C 37.7°F3.2°C 64% 1.0 mph NNW1.6 kmh NNW 2.0 mph3.2 kmh 29.67 in1004.7 mb 0.00 in0.0 mm 0.00 in0.0 mm 0.00 in0.0 mm
07:30 AM 48.2°F9.0°C 38.5°F3.6°C 69% Calm Calm 1.0 mph1.6 kmh 29.66 in1004.4 mb 0.00 in0.0 mm 0.00 in0.0 mm 0.00 in0.0 mm
07:40 AM 49.7°F9.8°C 33.8°F1.0°C 54% Calm Calm 4.0 mph6.4 kmh 29.66 in1004.4 mb 0.00 in0.0 mm 0.00 in0.0 mm 0.00 in0.0 mm
07:50 AM 51.7°F10.9°C 33.2°F0.7°C 49% Calm Calm 4.0 mph6.4 kmh 29.66 in1004.4 mb 0.00 in0.0 mm 0.00 in0.0 mm 0.00 in0.0 mm
08:00 AM 52.2°F11.2°C 35.6°F2.0°C 53% Calm Calm 1.0 mph1.6 kmh 29.66 in1004.4 mb 0.00 in0.0 mm 0.00 in0.0 mm 0.00 in0.0 mm
08:10 AM 51.4°F10.8°C 34.9°F1.6°C 53% Calm Calm 1.0 mph1.6 kmh 29.66 in1004.4 mb 0.00 in0.0 mm 0.00 in0.0 mm 0.00 in0.0 mm
08:20 AM 50.6°F10.3°C 35.5°F1.9°C 56% 1.0 mph ESE1.6 kmh ESE 3.0 mph4.8 kmh 29.66 in1004.4 mb 0.00 in0.0 mm 0.00 in0.0 mm 0.00 in0.0 mm
08:30 AM 50.6°F10.3°C 36.8°F2.7°C 59% Calm Calm 2.0 mph3.2 kmh 29.66 in1004.4 mb 0.00 in0.0 mm 0.00 in0.0 mm 0.00 in0.0 mm
08:40 AM 50.3°F10.2°C 36.5°F2.5°C 59% Calm Calm 5.0 mph8.0 kmh 29.66 in1004.4 mb 0.00 in0.0 mm 0.00 in0.0 mm 0.00 in0.0 mm
08:50 AM 50.4°F10.2°C 34.9°F1.6°C 55% Calm Calm 3.0 mph4.8 kmh 29.66 in1004.4 mb 0.00 in0.0 mm 0.00 in0.0 mm 0.00 in0.0 mm
09:00 AM 51.0°F10.6°C 35.4°F1.9°C 55% Calm Calm 1.0 mph1.6 kmh 29.66 in1004.4 mb 0.00 in0.0 mm 0.00 in0.0 mm 0.00 in0.0 mm
09:10 AM 51.1°F10.6°C 37.3°F2.9°C 59% Calm Calm 2.0 mph3.2 kmh 29.66 in1004.4 mb 0.00 in0.0 mm 0.00 in0.0 mm 0.00 in0.0 mm
09:20 AM 51.0°F10.6°C 37.2°F2.9°C 59% 1.0 mph NE1.6 kmh NE 3.0 mph4.8 kmh 29.65 in1004.1 mb 0.00 in0.0 mm 0.00 in0.0 mm 0.00 in0.0 mm
09:30 AM 51.3°F10.7°C 38.3°F3.5°C 61% Calm Calm -- 29.66 in1004.4 mb 0.00 in0.0 mm 0.00 in0.0 mm 0.00 in0.0 mm
09:40 AM 51.4°F10.8°C 39.2°F4.0°C 63% Calm Calm 2.0 mph3.2 kmh 29.66 in1004.4 mb 0.00 in0.0 mm 0.00 in0.0 mm 0.00 in0.0 mm
09:50 AM 51.9°F11.1°C 38.0°F3.3°C 59% Calm Calm 2.0 mph3.2 kmh 29.67 in1004.7 mb 0.00 in0.0 mm 0.00 in0.0 mm 0.00 in0.0 mm
10:00 AM 52.0°F11.1°C 35.9°F2.2°C 54% Calm Calm 6.0 mph9.7 kmh 29.67 in1004.7 mb 0.00 in0.0 mm 0.00 in0.0 mm 0.00 in0.0 mm
10:10 AM 51.8°F11.0°C 37.1°F2.8°C 57% Calm Calm 2.0 mph3.2 kmh 29.67 in1004.7 mb 0.00 in0.0 mm 0.00 in0.0 mm 0.00 in0.0 mm
10:20 AM 53.4°F11.9°C 36.2°F2.3°C 52% Calm Calm 4.0 mph6.4 kmh 29.67 in1004.7 mb 0.00 in0.0 mm 0.00 in0.0 mm 0.00 in0.0 mm
10:30 AM 54.8°F12.7°C 38.5°F3.6°C 54% 3.0 mph S4.8 kmh S 4.0 mph6.4 kmh 29.67 in1004.7 mb 0.00 in0.0 mm 0.00 in0.0 mm 0.00 in0.0 mm
10:40 AM 55.0°F12.8°C 39.6°F4.2°C 56% Calm Calm 2.0 mph3.2 kmh 29.68 in1005.1 mb 0.00 in0.0 mm 0.00 in0.0 mm 0.00 in0.0 mm
10:50 AM 53.3°F11.8°C 41.9°F5.5°C 65% Calm Calm 2.0 mph3.2 kmh 29.68 in1005.1 mb 0.00 in0.0 mm 0.00 in0.0 mm 0.00 in0.0 mm
11:00 AM 53.7°F12.1°C 38.9°F3.8°C 57% Calm Calm 4.0 mph6.4 kmh 29.69 in1005.4 mb 0.00 in0.0 mm 0.00 in0.0 mm 0.00 in0.0 mm
11:10 AM 53.5°F11.9°C 38.7°F3.7°C 57% 1.0 mph NW1.6 kmh NW 6.0 mph9.7 kmh 29.70 in1005.8 mb 0.00 in0.0 mm 0.00 in0.0 mm 0.00 in0.0 mm
11:20 AM 51.2°F10.7°C 38.6°F3.7°C 62% Calm Calm 1.0 mph1.6 kmh 29.70 in1005.8 mb 0.00 in0.0 mm 0.00 in0.0 mm 0.00 in0.0 mm
11:30 AM 49.4°F9.7°C 38.9°F3.8°C 67% 1.0 mph NNW1.6 kmh NNW 2.0 mph3.2 kmh 29.70 in1005.8 mb 0.00 in0.0 mm 0.00 in0.0 mm 0.00 in0.0 mm
11:40 AM 48.4°F9.1°C 38.7°F3.7°C 69% Calm Calm 1.0 mph1.6 kmh 29.71 in1006.1 mb 0.00 in0.0 mm 0.00 in0.0 mm 0.00 in0.0 mm
11:50 AM 47.9°F8.8°C 39.3°F4.1°C 72% Calm Calm 1.0 mph1.6 kmh 29.71 in1006.1 mb 0.00 in0.0 mm 0.00 in0.0 mm 0.00 in0.0 mm
12:00 PM 47.6°F8.7°C 39.0°F3.9°C 72% Calm Calm 4.0 mph6.4 kmh 29.72 in1006.4 mb 0.00 in0.0 mm 0.00 in0.0 mm 0.00 in0.0 mm
12:10 PM 47.0°F8.3°C 40.8°F4.9°C 79% Calm Calm 1.0 mph1.6 kmh 29.73 in1006.8 mb 0.00 in0.0 mm 0.00 in0.0 mm 0.00 in0.0 mm
12:20 PM 46.1°F7.8°C 41.2°F5.1°C 83% Calm Calm 2.0 mph3.2 kmh 29.73 in1006.8 mb 0.06 in1.5 mm 0.36 in9.1 mm 0.06 in1.5 mm
12:30 PM 45.9°F7.7°C 42.0°F5.6°C 86% Calm Calm 5.0 mph8.0 kmh 29.73 in1006.8 mb 0.03 in0.8 mm 0.00 in0.0 mm 0.06 in1.5 mm
12:40 PM 47.6°F8.7°C 44.2°F6.8°C 88% 4.0 mph ESE6.4 kmh ESE 6.0 mph9.7 kmh 29.75 in1007.5 mb 0.09 in2.3 mm 0.36 in9.1 mm 0.12 in3.0 mm
12:50 PM 49.2°F9.6°C 44.3°F6.8°C 83% 1.0 mph ESE1.6 kmh ESE 11.0 mph17.7 kmh 29.75 in1007.5 mb 0.05 in1.3 mm 0.00 in0.0 mm 0.12 in3.0 mm
01:00 PM 49.5°F9.7°C 44.6°F7.0°C 83% 5.0 mph NW8.0 kmh NW 6.0 mph9.7 kmh 29.75 in1007.5 mb 0.04 in1.0 mm 0.00 in0.0 mm 0.12 in3.0 mm
01:10 PM 48.7°F9.3°C 44.4°F6.9°C 85% Calm Calm 7.0 mph11.3 kmh 29.74 in1007.1 mb 0.04 in1.0 mm 0.00 in0.0 mm 0.12 in3.0 mm
01:20 PM 47.8°F8.8°C 44.1°F6.7°C 87% 4.0 mph NW6.4 kmh NW 4.0 mph6.4 kmh 29.74 in1007.1 mb 0.03 in0.8 mm 0.00 in0.0 mm 0.12 in3.0 mm
01:30 PM 46.7°F8.2°C 43.9°F6.6°C 90% Calm Calm 5.0 mph8.0 kmh 29.75 in1007.5 mb 0.03 in0.8 mm 0.00 in0.0 mm 0.12 in3.0 mm
01:40 PM 46.4°F8.0°C 43.9°F6.6°C 91% Calm Calm 4.0 mph6.4 kmh 29.75 in1007.5 mb 0.00 in0.0 mm 0.00 in0.0 mm 0.12 in3.0 mm
01:50 PM 46.6°F8.1°C 44.4°F6.9°C 92% Calm Calm -- 29.76 in1007.8 mb 0.11 in2.8 mm 0.66 in16.8 mm 0.23 in5.8 mm
02:00 PM 46.4°F8.0°C 44.2°F6.8°C 92% Calm Calm 1.0 mph1.6 kmh 29.76 in1007.8 mb 0.04 in1.0 mm 0.00 in0.0 mm 0.23 in5.8 mm
02:10 PM 46.3°F7.9°C 44.1°F6.7°C 92% Calm Calm -- 29.76 in1007.8 mb 0.04 in1.0 mm 0.00 in0.0 mm 0.23 in5.8 mm
02:20 PM 46.2°F7.9°C 44.0°F6.7°C 92% Calm Calm -- 29.77 in1008.1 mb 0.06 in1.5 mm 0.12 in3.0 mm 0.25 in6.4 mm
02:30 PM 46.4°F8.0°C 44.2°F6.8°C 92% Calm Calm 1.0 mph1.6 kmh 29.77 in1008.1 mb 0.07 in1.8 mm 0.06 in1.5 mm 0.26 in6.6 mm
02:40 PM 46.7°F8.2°C 44.8°F7.1°C 93% Calm Calm -- 29.77 in1008.1 mb 0.04 in1.0 mm 0.00 in0.0 mm 0.26 in6.6 mm
02:50 PM 46.3°F7.9°C 44.4°F6.9°C 93% Calm Calm -- 29.77 in1008.1 mb 0.07 in1.8 mm 0.18 in4.6 mm 0.29 in7.4 mm
03:00 PM 46.3°F7.9°C 44.4°F6.9°C 93% Calm Calm -- 29.77 in1008.1 mb 0.03 in0.8 mm 0.00 in0.0 mm 0.29 in7.4 mm
03:10 PM 46.3°F7.9°C 44.4°F6.9°C 93% Calm Calm -- 29.77 in1008.1 mb 0.00 in0.0 mm 0.00 in0.0 mm 0.29 in7.4 mm
03:20 PM 46.4°F8.0°C 44.5°F6.9°C 93% Calm Calm -- 29.77 in1008.1 mb 0.00 in0.0 mm 0.00 in0.0 mm 0.29 in7.4 mm
03:30 PM 46.8°F8.2°C 44.9°F7.2°C 93% Calm Calm -- 29.78 in1008.5 mb 0.00 in0.0 mm 0.00 in0.0 mm 0.29 in7.4 mm
03:40 PM 46.8°F8.2°C 44.9°F7.2°C 93% Calm Calm -- 29.78 in1008.5 mb 0.05 in1.3 mm 0.30 in7.6 mm 0.34 in8.6 mm
03:50 PM 46.6°F8.1°C 44.7°F7.1°C 93% Calm Calm -- 29.78 in1008.5 mb 0.03 in0.8 mm 0.00 in0.0 mm 0.34 in8.6 mm
04:00 PM 46.9°F8.3°C 45.0°F7.2°C 93% Calm Calm -- 29.78 in1008.5 mb 0.00 in0.0 mm 0.00 in0.0 mm 0.34 in8.6 mm
04:10 PM 46.8°F8.2°C 44.9°F7.2°C 93% Calm Calm -- 29.78 in1008.5 mb 0.00 in0.0 mm 0.00 in0.0 mm 0.34 in8.6 mm
04:20 PM 46.7°F8.2°C 44.8°F7.1°C 93% Calm Calm -- 29.78 in1008.5 mb 0.00 in0.0 mm 0.00 in0.0 mm 0.34 in8.6 mm
04:30 PM 46.7°F8.2°C 44.8°F7.1°C 93% Calm Calm -- 29.78 in1008.5 mb 0.00 in0.0 mm 0.00 in0.0 mm 0.34 in8.6 mm
04:40 PM 46.8°F8.2°C 44.9°F7.2°C 93% Calm Calm -- 29.78 in1008.5 mb 0.00 in0.0 mm 0.00 in0.0 mm 0.34 in8.6 mm
04:50 PM 46.7°F8.2°C 44.8°F7.1°C 93% Calm Calm -- 29.77 in1008.1 mb 0.00 in0.0 mm 0.00 in0.0 mm 0.34 in8.6 mm
05:00 PM 46.7°F8.2°C 44.8°F7.1°C 93% Calm Calm -- 29.78 in1008.5 mb 0.00 in0.0 mm 0.00 in0.0 mm 0.34 in8.6 mm
05:10 PM 46.5°F8.1°C 44.6°F7.0°C 93% Calm Calm -- 29.78 in1008.5 mb 0.00 in0.0 mm 0.00 in0.0 mm 0.34 in8.6 mm
05:20 PM 46.3°F7.9°C 44.4°F6.9°C 93% Calm Calm -- 29.78 in1008.5 mb 0.00 in0.0 mm 0.00 in0.0 mm 0.34 in8.6 mm
05:30 PM 46.3°F7.9°C 44.4°F6.9°C 93% Calm Calm -- 29.78 in1008.5 mb 0.00 in0.0 mm 0.00 in0.0 mm 0.34 in8.6 mm
05:40 PM 46.3°F7.9°C 44.4°F6.9°C 93% Calm Calm -- 29.77 in1008.1 mb 0.00 in0.0 mm 0.00 in0.0 mm 0.34 in8.6 mm
05:50 PM 46.4°F8.0°C 44.5°F6.9°C 93% Calm Calm -- 29.77 in1008.1 mb 0.00 in0.0 mm 0.00 in0.0 mm 0.34 in8.6 mm
06:00 PM 46.4°F8.0°C 44.5°F6.9°C 93% Calm Calm -- 29.77 in1008.1 mb 0.00 in0.0 mm 0.00 in0.0 mm 0.34 in8.6 mm
06:10 PM 46.3°F7.9°C 44.4°F6.9°C 93% Calm Calm -- 29.77 in1008.1 mb 0.00 in0.0 mm 0.00 in0.0 mm 0.34 in8.6 mm
06:20 PM 46.3°F7.9°C 44.4°F6.9°C 93% Calm Calm -- 29.77 in1008.1 mb 0.00 in0.0 mm 0.00 in0.0 mm 0.34 in8.6 mm
06:30 PM 46.1°F7.8°C 44.2°F6.8°C 93% Calm Calm -- 29.77 in1008.1 mb 0.00 in0.0 mm 0.00 in0.0 mm 0.34 in8.6 mm
06:40 PM 46.0°F7.8°C 44.1°F6.7°C 93% Calm Calm -- 29.78 in1008.5 mb 0.00 in0.0 mm 0.00 in0.0 mm 0.34 in8.6 mm
06:50 PM 45.9°F7.7°C 44.0°F6.7°C 93% Calm Calm -- 29.78 in1008.5 mb 0.00 in0.0 mm 0.00 in0.0 mm 0.34 in8.6 mm
07:00 PM 45.5°F7.5°C 43.6°F6.4°C 93% Calm Calm -- 29.77 in1008.1 mb 0.00 in0.0 mm 0.00 in0.0 mm 0.34 in8.6 mm
07:10 PM 45.3°F7.4°C 43.4°F6.3°C 93% Calm Calm -- 29.77 in1008.1 mb 0.00 in0.0 mm 0.00 in0.0 mm 0.34 in8.6 mm
07:20 PM 45.0°F7.2°C 43.1°F6.2°C 93% Calm Calm -- 29.78 in1008.5 mb 0.00 in0.0 mm 0.00 in0.0 mm 0.34 in8.6 mm
07:30 PM 44.6°F7.0°C 42.4°F5.8°C 92% Calm Calm -- 29.78 in1008.5 mb 0.00 in0.0 mm 0.00 in0.0 mm 0.34 in8.6 mm
07:40 PM 44.5°F6.9°C 42.3°F5.7°C 92% Calm Calm -- 29.78 in1008.5 mb 0.00 in0.0 mm 0.00 in0.0 mm 0.34 in8.6 mm
07:50 PM 44.4°F6.9°C 42.5°F5.8°C 93% Calm Calm -- 29.78 in1008.5 mb 0.00 in0.0 mm 0.00 in0.0 mm 0.34 in8.6 mm
08:00 PM 44.3°F6.8°C 42.4°F5.8°C 93% Calm Calm -- 29.78 in1008.5 mb 0.00 in0.0 mm 0.00 in0.0 mm 0.34 in8.6 mm
08:10 PM 44.3°F6.8°C 42.4°F5.8°C 93% Calm Calm -- 29.78 in1008.5 mb 0.00 in0.0 mm 0.00 in0.0 mm 0.34 in8.6 mm
08:20 PM 44.2°F6.8°C 42.3°F5.7°C 93% Calm Calm -- 29.78 in1008.5 mb 0.00 in0.0 mm 0.00 in0.0 mm 0.34 in8.6 mm
08:30 PM 44.2°F6.8°C 42.3°F5.7°C 93% Calm Calm 1.0 mph1.6 kmh 29.78 in1008.5 mb 0.00 in0.0 mm 0.00 in0.0 mm 0.34 in8.6 mm
08:40 PM 44.2°F6.8°C 42.3°F5.7°C 93% Calm Calm -- 29.78 in1008.5 mb 0.00 in0.0 mm 0.00 in0.0 mm 0.34 in8.6 mm
08:50 PM 44.2°F6.8°C 42.3°F5.7°C 93% Calm Calm 2.0 mph3.2 kmh 29.79 in1008.8 mb 0.00 in0.0 mm 0.00 in0.0 mm 0.34 in8.6 mm
09:00 PM 44.3°F6.8°C 42.4°F5.8°C 93% Calm Calm -- 29.79 in1008.8 mb 0.00 in0.0 mm 0.00 in0.0 mm 0.34 in8.6 mm
09:10 PM 44.3°F6.8°C 42.4°F5.8°C 93% Calm Calm -- 29.80 in1009.1 mb 0.00 in0.0 mm 0.00 in0.0 mm 0.34 in8.6 mm
09:20 PM 44.3°F6.8°C 42.4°F5.8°C 93% Calm Calm 1.0 mph1.6 kmh 29.79 in1008.8 mb 0.00 in0.0 mm 0.00 in0.0 mm 0.34 in8.6 mm
09:30 PM 44.3°F6.8°C 42.4°F5.8°C 93% Calm Calm -- 29.79 in1008.8 mb 0.00 in0.0 mm 0.00 in0.0 mm 0.34 in8.6 mm
09:40 PM 44.2°F6.8°C 42.3°F5.7°C 93% Calm Calm -- 29.79 in1008.8 mb 0.10 in2.5 mm 0.60 in15.2 mm 0.44 in11.2 mm
09:50 PM 44.2°F6.8°C 42.3°F5.7°C 93% Calm Calm -- 29.79 in1008.8 mb 0.11 in2.8 mm 0.06 in1.5 mm 0.45 in11.4 mm
10:00 PM 44.1°F6.7°C 42.2°F5.7°C 93% Calm Calm -- 29.79 in1008.8 mb 0.13 in3.3 mm 0.02 in0.5 mm 0.47 in11.9 mm
10:10 PM 44.1°F6.7°C 42.2°F5.7°C 93% Calm Calm -- 29.79 in1008.8 mb 0.13 in3.3 mm 0.00 in0.0 mm 0.47 in11.9 mm
10:20 PM 44.1°F6.7°C 42.2°F5.7°C 93% Calm Calm 2.0 mph3.2 kmh 29.79 in1008.8 mb 0.19 in4.8 mm 0.36 in9.1 mm 0.53 in13.5 mm
10:30 PM 44.1°F6.7°C 42.2°F5.7°C 93% Calm Calm -- 29.80 in1009.1 mb 0.06 in1.5 mm 0.00 in0.0 mm 0.53 in13.5 mm
10:40 PM 44.0°F6.7°C 42.1°F5.6°C 93% Calm Calm -- 29.79 in1008.8 mb 0.15 in3.8 mm 0.54 in13.7 mm 0.62 in15.7 mm
10:50 PM 44.0°F6.7°C 42.1°F5.6°C 93% Calm Calm -- 29.79 in1008.8 mb 0.11 in2.8 mm 0.00 in0.0 mm 0.62 in15.7 mm
11:00 PM 44.0°F6.7°C 42.1°F5.6°C 93% Calm Calm -- 29.79 in1008.8 mb 0.16 in4.1 mm 0.06 in1.5 mm 0.67 in17.0 mm
11:10 PM 44.0°F6.7°C 42.1°F5.6°C 93% Calm Calm -- 29.79 in1008.8 mb 0.07 in1.8 mm 0.00 in0.0 mm 0.67 in17.0 mm
11:20 PM 43.9°F6.6°C 42.0°F5.6°C 93% Calm Calm -- 29.78 in1008.5 mb 0.03 in0.8 mm 0.00 in0.0 mm 0.67 in17.0 mm
11:30 PM 43.8°F6.6°C 41.9°F5.5°C 93% Calm Calm -- 29.78 in1008.5 mb 0.03 in0.8 mm 0.00 in0.0 mm 0.67 in17.0 mm
11:40 PM 43.7°F6.5°C 41.8°F5.4°C 93% Calm Calm -- 29.78 in1008.5 mb 0.00 in0.0 mm 0.00 in0.0 mm 0.67 in17.0 mm
11:50 PM 43.7°F6.5°C 41.8°F5.4°C 93% Calm Calm -- 29.78 in1008.5 mb 0.00 in0.0 mm 0.00 in0.0 mm 0.67 in17.0 mm